sensor_id;sensor_type;location;lat;lon;timestamp;P1;durP1;ratioP1;P2;durP2;ratioP2
60973;SDS011;46846;51.528;5.076;2023-08-21T00:02:20;578.90;;;551.17;;
60973;SDS011;46846;51.528;5.076;2023-08-21T00:04:46;571.13;;;543.78;;
60973;SDS011;46846;51.528;5.076;2023-08-21T00:07:11;589.53;;;561.17;;
60973;SDS011;46846;51.528;5.076;2023-08-21T00:09:37;570.30;;;543.05;;
60973;SDS011;46846;51.528;5.076;2023-08-21T00:12:03;580.90;;;553.17;;
60973;SDS011;46846;51.528;5.076;2023-08-21T00:14:28;581.05;;;552.92;;
60973;SDS011;46846;51.528;5.076;2023-08-21T00:16:54;591.72;;;563.33;;
60973;SDS011;46846;51.528;5.076;2023-08-21T00:19:19;572.85;;;545.20;;
60973;SDS011;46846;51.528;5.076;2023-08-21T00:21:45;591.95;;;563.75;;
60973;SDS011;46846;51.528;5.076;2023-08-21T00:24:10;578.42;;;550.67;;
60973;SDS011;46846;51.528;5.076;2023-08-21T00:26:36;588.33;;;560.17;;
60973;SDS011;46846;51.528;5.076;2023-08-21T00:29:01;567.90;;;540.90;;
60973;SDS011;46846;51.528;5.076;2023-08-21T00:31:27;567.00;;;540.03;;
60973;SDS011;46846;51.528;5.076;2023-08-21T00:33:52;584.58;;;556.63;;
60973;SDS011;46846;51.528;5.076;2023-08-21T00:36:18;580.00;;;552.35;;
60973;SDS011;46846;51.528;5.076;2023-08-21T00:38:44;573.65;;;546.47;;
60973;SDS011;46846;51.528;5.076;2023-08-21T00:41:10;577.47;;;549.72;;
60973;SDS011;46846;51.528;5.076;2023-08-21T00:43:35;582.50;;;554.58;;
60973;SDS011;46846;51.528;5.076;2023-08-21T00:46:01;577.45;;;549.80;;
60973;SDS011;46846;51.528;5.076;2023-08-21T00:48:26;573.03;;;545.63;;
60973;SDS011;46846;51.528;5.076;2023-08-21T00:50:52;563.75;;;536.85;;
60973;SDS011;46846;51.528;5.076;2023-08-21T00:53:17;565.25;;;538.15;;
60973;SDS011;46846;51.528;5.076;2023-08-21T00:55:43;576.35;;;548.55;;
60973;SDS011;46846;51.528;5.076;2023-08-21T00:58:12;562.67;;;535.90;;
60973;SDS011;46846;51.528;5.076;2023-08-21T01:00:38;577.47;;;549.83;;
60973;SDS011;46846;51.528;5.076;2023-08-21T01:03:04;555.08;;;528.60;;
60973;SDS011;46846;51.528;5.076;2023-08-21T01:05:29;574.17;;;546.40;;
60973;SDS011;46846;51.528;5.076;2023-08-21T01:08:02;584.22;;;556.22;;
60973;SDS011;46846;51.528;5.076;2023-08-21T01:13:06;565.17;;;538.30;;
60973;SDS011;46846;51.528;5.076;2023-08-21T01:15:38;571.78;;;544.47;;
60973;SDS011;46846;51.528;5.076;2023-08-21T01:18:04;575.45;;;547.72;;
60973;SDS011;46846;51.528;5.076;2023-08-21T01:20:32;582.08;;;554.17;;
60973;SDS011;46846;51.528;5.076;2023-08-21T01:23:02;558.00;;;531.40;;
60973;SDS011;46846;51.528;5.076;2023-08-21T01:25:29;568.50;;;541.25;;
60973;SDS011;46846;51.528;5.076;2023-08-21T01:27:54;558.45;;;531.78;;
60973;SDS011;46846;51.528;5.076;2023-08-21T01:30:20;569.00;;;541.88;;
60973;SDS011;46846;51.528;5.076;2023-08-21T01:32:53;576.40;;;549.00;;
60973;SDS011;46846;51.528;5.076;2023-08-21T01:35:20;559.50;;;532.75;;
60973;SDS011;46846;51.528;5.076;2023-08-21T01:37:47;565.72;;;538.67;;
60973;SDS011;46846;51.528;5.076;2023-08-21T01:40:19;565.60;;;538.72;;
60973;SDS011;46846;51.528;5.076;2023-08-21T01:42:46;574.05;;;546.70;;
60973;SDS011;46846;51.528;5.076;2023-08-21T01:45:11;568.28;;;541.28;;
60973;SDS011;46846;51.528;5.076;2023-08-21T01:47:37;556.80;;;530.13;;
60973;SDS011;46846;51.528;5.076;2023-08-21T01:50:02;558.88;;;532.22;;
60973;SDS011;46846;51.528;5.076;2023-08-21T01:52:28;557.00;;;529.90;;
60973;SDS011;46846;51.528;5.076;2023-08-21T01:54:53;548.30;;;522.03;;
60973;SDS011;46846;51.528;5.076;2023-08-21T01:57:19;553.63;;;527.28;;
60973;SDS011;46846;51.528;5.076;2023-08-21T01:59:44;567.42;;;540.20;;
60973;SDS011;46846;51.528;5.076;2023-08-21T02:02:09;568.15;;;540.97;;
60973;SDS011;46846;51.528;5.076;2023-08-21T02:04:35;582.17;;;554.28;;
60973;SDS011;46846;51.528;5.076;2023-08-21T02:07:00;560.20;;;533.53;;
60973;SDS011;46846;51.528;5.076;2023-08-21T02:09:26;558.63;;;531.75;;
60973;SDS011;46846;51.528;5.076;2023-08-21T02:11:51;576.78;;;549.30;;
60973;SDS011;46846;51.528;5.076;2023-08-21T02:14:16;548.03;;;521.97;;
60973;SDS011;46846;51.528;5.076;2023-08-21T02:16:42;551.38;;;525.20;;
60973;SDS011;46846;51.528;5.076;2023-08-21T02:19:07;558.40;;;531.85;;
60973;SDS011;46846;51.528;5.076;2023-08-21T02:21:34;555.38;;;528.83;;
60973;SDS011;46846;51.528;5.076;2023-08-21T02:24:01;562.28;;;535.60;;
60973;SDS011;46846;51.528;5.076;2023-08-21T02:26:27;557.25;;;530.80;;
60973;SDS011;46846;51.528;5.076;2023-08-21T02:28:52;551.45;;;525.25;;
60973;SDS011;46846;51.528;5.076;2023-08-21T02:31:18;562.92;;;536.17;;
60973;SDS011;46846;51.528;5.076;2023-08-21T02:33:44;554.85;;;527.80;;
60973;SDS011;46846;51.528;5.076;2023-08-21T02:36:09;568.70;;;541.30;;
60973;SDS011;46846;51.528;5.076;2023-08-21T02:38:35;549.72;;;523.72;;
60973;SDS011;46846;51.528;5.076;2023-08-21T02:41:00;561.80;;;534.67;;
60973;SDS011;46846;51.528;5.076;2023-08-21T02:43:26;549.47;;;523.33;;
60973;SDS011;46846;51.528;5.076;2023-08-21T02:45:51;547.40;;;521.47;;
60973;SDS011;46846;51.528;5.076;2023-08-21T02:48:16;551.53;;;525.38;;
60973;SDS011;46846;51.528;5.076;2023-08-21T02:50:42;542.03;;;516.17;;
60973;SDS011;46846;51.528;5.076;2023-08-21T02:53:08;544.35;;;518.35;;
60973;SDS011;46846;51.528;5.076;2023-08-21T02:55:34;557.92;;;531.35;;
60973;SDS011;46846;51.528;5.076;2023-08-21T02:57:59;551.53;;;525.28;;
60973;SDS011;46846;51.528;5.076;2023-08-21T03:00:25;554.15;;;527.40;;
60973;SDS011;46846;51.528;5.076;2023-08-21T03:02:50;553.97;;;527.47;;
60973;SDS011;46846;51.528;5.076;2023-08-21T03:05:15;552.97;;;526.63;;
60973;SDS011;46846;51.528;5.076;2023-08-21T03:07:41;547.97;;;521.95;;
60973;SDS011;46846;51.528;5.076;2023-08-21T03:10:07;542.13;;;516.35;;
60973;SDS011;46846;51.528;5.076;2023-08-21T03:12:33;552.83;;;526.50;;
60973;SDS011;46846;51.528;5.076;2023-08-21T03:14:59;552.67;;;526.33;;
60973;SDS011;46846;51.528;5.076;2023-08-21T03:17:24;548.33;;;522.15;;
60973;SDS011;46846;51.528;5.076;2023-08-21T03:19:50;573.55;;;546.25;;
60973;SDS011;46846;51.528;5.076;2023-08-21T03:22:15;548.72;;;522.35;;
60973;SDS011;46846;51.528;5.076;2023-08-21T03:24:41;536.25;;;510.60;;
60973;SDS011;46846;51.528;5.076;2023-08-21T03:27:06;540.33;;;514.13;;
60973;SDS011;46846;51.528;5.076;2023-08-21T03:29:32;546.63;;;520.28;;
60973;SDS011;46846;51.528;5.076;2023-08-21T03:31:57;549.92;;;523.72;;
60973;SDS011;46846;51.528;5.076;2023-08-21T03:34:23;543.42;;;517.40;;
60973;SDS011;46846;51.528;5.076;2023-08-21T03:36:49;539.72;;;514.05;;
60973;SDS011;46846;51.528;5.076;2023-08-21T03:39:14;552.08;;;525.60;;
60973;SDS011;46846;51.528;5.076;2023-08-21T03:41:40;547.88;;;521.67;;
60973;SDS011;46846;51.528;5.076;2023-08-21T03:44:05;535.92;;;510.42;;
60973;SDS011;46846;51.528;5.076;2023-08-21T03:46:31;547.58;;;521.40;;
60973;SDS011;46846;51.528;5.076;2023-08-21T03:48:56;540.03;;;514.05;;
60973;SDS011;46846;51.528;5.076;2023-08-21T03:51:22;543.60;;;517.83;;
60973;SDS011;46846;51.528;5.076;2023-08-21T03:53:47;548.70;;;522.58;;
60973;SDS011;46846;51.528;5.076;2023-08-21T03:56:13;550.20;;;524.03;;
60973;SDS011;46846;51.528;5.076;2023-08-21T03:58:39;537.25;;;511.42;;
60973;SDS011;46846;51.528;5.076;2023-08-21T04:01:04;554.35;;;527.85;;
60973;SDS011;46846;51.528;5.076;2023-08-21T04:03:30;562.92;;;535.97;;
60973;SDS011;46846;51.528;5.076;2023-08-21T04:05:55;574.20;;;546.65;;
60973;SDS011;46846;51.528;5.076;2023-08-21T04:08:21;557.17;;;530.58;;
60973;SDS011;46846;51.528;5.076;2023-08-21T04:10:47;542.08;;;516.33;;
60973;SDS011;46846;51.528;5.076;2023-08-21T04:13:13;551.05;;;524.67;;
60973;SDS011;46846;51.528;5.076;2023-08-21T04:15:38;531.33;;;505.92;;
60973;SDS011;46846;51.528;5.076;2023-08-21T04:18:04;546.45;;;520.28;;
60973;SDS011;46846;51.528;5.076;2023-08-21T04:20:30;555.22;;;528.50;;
60973;SDS011;46846;51.528;5.076;2023-08-21T04:22:56;538.20;;;512.55;;
60973;SDS011;46846;51.528;5.076;2023-08-21T04:25:21;546.22;;;519.92;;
60973;SDS011;46846;51.528;5.076;2023-08-21T04:27:47;534.17;;;508.48;;
60973;SDS011;46846;51.528;5.076;2023-08-21T04:30:12;543.28;;;517.33;;
60973;SDS011;46846;51.528;5.076;2023-08-21T04:32:37;544.50;;;518.50;;
60973;SDS011;46846;51.528;5.076;2023-08-21T04:35:03;544.35;;;517.90;;
60973;SDS011;46846;51.528;5.076;2023-08-21T04:37:30;556.35;;;529.58;;
60973;SDS011;46846;51.528;5.076;2023-08-21T04:39:56;534.47;;;508.75;;
60973;SDS011;46846;51.528;5.076;2023-08-21T04:42:21;538.90;;;513.05;;
60973;SDS011;46846;51.528;5.076;2023-08-21T04:44:47;538.28;;;512.42;;
60973;SDS011;46846;51.528;5.076;2023-08-21T04:47:23;546.50;;;520.38;;
60973;SDS011;46846;51.528;5.076;2023-08-21T04:49:52;536.65;;;510.98;;
60973;SDS011;46846;51.528;5.076;2023-08-21T04:52:21;535.28;;;509.83;;
60973;SDS011;46846;51.528;5.076;2023-08-21T04:54:47;525.03;;;499.88;;
60973;SDS011;46846;51.528;5.076;2023-08-21T04:57:13;548.60;;;522.50;;
60973;SDS011;46846;51.528;5.076;2023-08-21T04:59:39;532.75;;;506.88;;
60973;SDS011;46846;51.528;5.076;2023-08-21T05:02:05;544.40;;;518.28;;
60973;SDS011;46846;51.528;5.076;2023-08-21T05:04:30;529.35;;;504.02;;
60973;SDS011;46846;51.528;5.076;2023-08-21T05:06:56;510.65;;;486.08;;
60973;SDS011;46846;51.528;5.076;2023-08-21T05:09:21;524.40;;;499.05;;
60973;SDS011;46846;51.528;5.076;2023-08-21T05:11:46;541.15;;;515.17;;
60973;SDS011;46846;51.528;5.076;2023-08-21T05:14:12;523.10;;;498.13;;
60973;SDS011;46846;51.528;5.076;2023-08-21T05:16:37;533.50;;;507.88;;
60973;SDS011;46846;51.528;5.076;2023-08-21T05:19:03;549.38;;;522.92;;
60973;SDS011;46846;51.528;5.076;2023-08-21T05:21:28;532.53;;;507.05;;
60973;SDS011;46846;51.528;5.076;2023-08-21T05:23:54;519.85;;;494.80;;
60973;SDS011;46846;51.528;5.076;2023-08-21T05:26:19;530.60;;;505.00;;
60973;SDS011;46846;51.528;5.076;2023-08-21T05:28:45;532.08;;;506.65;;
60973;SDS011;46846;51.528;5.076;2023-08-21T05:31:11;516.58;;;491.35;;
60973;SDS011;46846;51.528;5.076;2023-08-21T05:33:36;517.60;;;492.73;;
60973;SDS011;46846;51.528;5.076;2023-08-21T05:36:02;519.50;;;494.67;;
60973;SDS011;46846;51.528;5.076;2023-08-21T05:38:27;532.65;;;506.90;;
60973;SDS011;46846;51.528;5.076;2023-08-21T05:40:53;531.47;;;505.90;;
60973;SDS011;46846;51.528;5.076;2023-08-21T05:43:18;519.15;;;494.05;;
60973;SDS011;46846;51.528;5.076;2023-08-21T05:45:44;520.13;;;495.27;;
60973;SDS011;46846;51.528;5.076;2023-08-21T05:48:09;528.00;;;502.73;;
60973;SDS011;46846;51.528;5.076;2023-08-21T05:50:35;516.13;;;491.08;;
60973;SDS011;46846;51.528;5.076;2023-08-21T05:53:04;539.33;;;513.40;;
60973;SDS011;46846;51.528;5.076;2023-08-21T05:55:30;513.17;;;488.58;;
60973;SDS011;46846;51.528;5.076;2023-08-21T05:57:55;525.70;;;500.27;;
60973;SDS011;46846;51.528;5.076;2023-08-21T06:00:21;530.75;;;505.13;;
60973;SDS011;46846;51.528;5.076;2023-08-21T06:02:46;513.05;;;488.20;;
60973;SDS011;46846;51.528;5.076;2023-08-21T06:05:12;528.40;;;503.17;;
60973;SDS011;46846;51.528;5.076;2023-08-21T06:07:37;514.00;;;489.33;;
60973;SDS011;46846;51.528;5.076;2023-08-21T06:10:05;532.42;;;506.65;;
60973;SDS011;46846;51.528;5.076;2023-08-21T06:12:36;538.72;;;512.67;;
60973;SDS011;46846;51.528;5.076;2023-08-21T06:15:02;517.85;;;493.05;;
60973;SDS011;46846;51.528;5.076;2023-08-21T06:17:28;510.38;;;485.88;;
60973;SDS011;46846;51.528;5.076;2023-08-21T06:19:53;521.63;;;496.58;;
60973;SDS011;46846;51.528;5.076;2023-08-21T06:22:18;525.08;;;499.80;;
60973;SDS011;46846;51.528;5.076;2023-08-21T06:24:44;521.45;;;496.42;;
60973;SDS011;46846;51.528;5.076;2023-08-21T06:27:09;518.28;;;493.23;;
60973;SDS011;46846;51.528;5.076;2023-08-21T06:29:35;545.17;;;519.17;;
60973;SDS011;46846;51.528;5.076;2023-08-21T06:32:02;516.50;;;491.27;;
60973;SDS011;46846;51.528;5.076;2023-08-21T06:34:28;518.95;;;494.00;;
60973;SDS011;46846;51.528;5.076;2023-08-21T06:36:53;530.50;;;505.10;;
60973;SDS011;46846;51.528;5.076;2023-08-21T06:39:19;525.67;;;500.40;;
60973;SDS011;46846;51.528;5.076;2023-08-21T06:41:44;536.10;;;510.17;;
60973;SDS011;46846;51.528;5.076;2023-08-21T06:44:09;514.03;;;489.13;;
60973;SDS011;46846;51.528;5.076;2023-08-21T06:46:35;525.13;;;499.90;;
60973;SDS011;46846;51.528;5.076;2023-08-21T06:49:01;525.33;;;500.20;;
60973;SDS011;46846;51.528;5.076;2023-08-21T06:51:27;527.45;;;502.13;;
60973;SDS011;46846;51.528;5.076;2023-08-21T06:53:52;529.63;;;503.98;;
60973;SDS011;46846;51.528;5.076;2023-08-21T06:56:17;523.53;;;498.20;;
60973;SDS011;46846;51.528;5.076;2023-08-21T06:58:43;516.85;;;491.98;;
60973;SDS011;46846;51.528;5.076;2023-08-21T07:01:08;529.25;;;503.80;;
60973;SDS011;46846;51.528;5.076;2023-08-21T07:03:33;514.17;;;489.42;;
60973;SDS011;46846;51.528;5.076;2023-08-21T07:05:59;525.53;;;500.27;;
60973;SDS011;46846;51.528;5.076;2023-08-21T07:08:25;526.67;;;501.25;;
60973;SDS011;46846;51.528;5.076;2023-08-21T07:10:52;524.80;;;499.50;;
60973;SDS011;46846;51.528;5.076;2023-08-21T07:13:18;525.28;;;500.20;;
60973;SDS011;46846;51.528;5.076;2023-08-21T07:15:44;525.47;;;499.98;;
60973;SDS011;46846;51.528;5.076;2023-08-21T07:18:10;528.50;;;503.02;;
60973;SDS011;46846;51.528;5.076;2023-08-21T07:20:35;537.03;;;511.15;;
60973;SDS011;46846;51.528;5.076;2023-08-21T07:23:01;514.83;;;490.10;;
60973;SDS011;46846;51.528;5.076;2023-08-21T07:25:26;529.20;;;503.05;;
60973;SDS011;46846;51.528;5.076;2023-08-21T07:27:53;534.00;;;508.52;;
60973;SDS011;46846;51.528;5.076;2023-08-21T07:30:19;522.75;;;497.67;;
60973;SDS011;46846;51.528;5.076;2023-08-21T07:32:45;520.83;;;495.67;;
60973;SDS011;46846;51.528;5.076;2023-08-21T07:35:11;551.97;;;525.58;;
60973;SDS011;46846;51.528;5.076;2023-08-21T07:37:37;541.08;;;515.10;;
60973;SDS011;46846;51.528;5.076;2023-08-21T07:40:04;524.65;;;499.10;;
60973;SDS011;46846;51.528;5.076;2023-08-21T07:42:30;530.70;;;505.30;;
60973;SDS011;46846;51.528;5.076;2023-08-21T07:44:56;519.08;;;493.92;;
60973;SDS011;46846;51.528;5.076;2023-08-21T07:47:21;545.30;;;519.13;;
60973;SDS011;46846;51.528;5.076;2023-08-21T07:49:46;528.97;;;503.70;;
60973;SDS011;46846;51.528;5.076;2023-08-21T07:52:12;523.17;;;498.08;;
60973;SDS011;46846;51.528;5.076;2023-08-21T07:54:37;527.88;;;502.50;;
60973;SDS011;46846;51.528;5.076;2023-08-21T07:57:03;530.70;;;504.50;;
60973;SDS011;46846;51.528;5.076;2023-08-21T07:59:29;535.00;;;509.42;;
60973;SDS011;46846;51.528;5.076;2023-08-21T08:01:54;530.75;;;505.40;;
60973;SDS011;46846;51.528;5.076;2023-08-21T08:04:20;525.63;;;500.05;;
60973;SDS011;46846;51.528;5.076;2023-08-21T08:06:46;538.00;;;512.10;;
60973;SDS011;46846;51.528;5.076;2023-08-21T08:09:11;541.33;;;515.58;;
60973;SDS011;46846;51.528;5.076;2023-08-21T08:11:37;545.72;;;519.45;;
60973;SDS011;46846;51.528;5.076;2023-08-21T08:14:02;543.42;;;517.33;;
60973;SDS011;46846;51.528;5.076;2023-08-21T08:16:27;555.97;;;529.58;;
60973;SDS011;46846;51.528;5.076;2023-08-21T08:18:53;540.45;;;514.22;;
60973;SDS011;46846;51.528;5.076;2023-08-21T08:21:19;538.92;;;512.88;;
60973;SDS011;46846;51.528;5.076;2023-08-21T08:23:44;543.55;;;517.53;;
60973;SDS011;46846;51.528;5.076;2023-08-21T08:26:10;540.67;;;514.75;;
60973;SDS011;46846;51.528;5.076;2023-08-21T08:28:36;549.65;;;523.33;;
60973;SDS011;46846;51.528;5.076;2023-08-21T08:31:01;552.17;;;525.78;;
60973;SDS011;46846;51.528;5.076;2023-08-21T08:33:27;554.28;;;527.70;;
60973;SDS011;46846;51.528;5.076;2023-08-21T08:35:52;555.88;;;529.38;;
60973;SDS011;46846;51.528;5.076;2023-08-21T08:38:18;544.85;;;518.90;;
60973;SDS011;46846;51.528;5.076;2023-08-21T08:40:44;560.78;;;533.95;;
60973;SDS011;46846;51.528;5.076;2023-08-21T08:43:11;551.40;;;524.83;;
60973;SDS011;46846;51.528;5.076;2023-08-21T08:45:37;556.08;;;529.47;;
60973;SDS011;46846;51.528;5.076;2023-08-21T08:48:05;536.17;;;510.63;;
60973;SDS011;46846;51.528;5.076;2023-08-21T08:50:31;562.92;;;535.78;;
60973;SDS011;46846;51.528;5.076;2023-08-21T08:52:58;560.65;;;533.70;;
60973;SDS011;46846;51.528;5.076;2023-08-21T08:55:25;569.20;;;541.80;;
60973;SDS011;46846;51.528;5.076;2023-08-21T08:57:51;560.08;;;533.35;;
60973;SDS011;46846;51.528;5.076;2023-08-21T09:00:18;559.30;;;532.13;;
60973;SDS011;46846;51.528;5.076;2023-08-21T09:02:45;561.30;;;534.35;;
60973;SDS011;46846;51.528;5.076;2023-08-21T09:05:10;568.08;;;540.90;;
60973;SDS011;46846;51.528;5.076;2023-08-21T09:07:36;567.28;;;539.85;;
60973;SDS011;46846;51.528;5.076;2023-08-21T09:10:02;547.95;;;521.58;;
60973;SDS011;46846;51.528;5.076;2023-08-21T09:12:30;553.10;;;525.92;;
60973;SDS011;46846;51.528;5.076;2023-08-21T09:14:56;556.38;;;529.75;;
60973;SDS011;46846;51.528;5.076;2023-08-21T09:17:23;563.00;;;536.17;;
60973;SDS011;46846;51.528;5.076;2023-08-21T09:19:49;577.45;;;549.97;;
60973;SDS011;46846;51.528;5.076;2023-08-21T09:22:15;569.55;;;542.17;;
60973;SDS011;46846;51.528;5.076;2023-08-21T09:27:32;567.95;;;540.60;;
60973;SDS011;46846;51.528;5.076;2023-08-21T09:30:09;560.72;;;533.85;;
60973;SDS011;46846;51.528;5.076;2023-08-21T09:32:51;569.38;;;541.97;;
60973;SDS011;46846;51.528;5.076;2023-08-21T09:35:18;569.92;;;542.42;;
60973;SDS011;46846;51.528;5.076;2023-08-21T09:37:46;576.88;;;549.30;;
60973;SDS011;46846;51.528;5.076;2023-08-21T09:40:12;576.42;;;548.88;;
60973;SDS011;46846;51.528;5.076;2023-08-21T09:42:38;578.85;;;551.33;;
60973;SDS011;46846;51.528;5.076;2023-08-21T09:45:04;569.85;;;542.08;;
60973;SDS011;46846;51.528;5.076;2023-08-21T09:47:30;576.47;;;548.13;;
60973;SDS011;46846;51.528;5.076;2023-08-21T09:49:56;583.00;;;555.15;;
60973;SDS011;46846;51.528;5.076;2023-08-21T09:52:23;574.42;;;547.05;;
60973;SDS011;46846;51.528;5.076;2023-08-21T09:54:49;578.58;;;550.83;;
60973;SDS011;46846;51.528;5.076;2023-08-21T09:57:18;564.90;;;537.88;;
60973;SDS011;46846;51.528;5.076;2023-08-21T09:59:47;583.25;;;555.25;;
60973;SDS011;46846;51.528;5.076;2023-08-21T10:02:16;568.80;;;541.28;;
60973;SDS011;46846;51.528;5.076;2023-08-21T10:04:42;582.17;;;553.85;;
60973;SDS011;46846;51.528;5.076;2023-08-21T10:07:10;586.75;;;558.08;;
60973;SDS011;46846;51.528;5.076;2023-08-21T10:09:38;577.25;;;548.30;;
60973;SDS011;46846;51.528;5.076;2023-08-21T10:12:05;580.03;;;552.17;;
60973;SDS011;46846;51.528;5.076;2023-08-21T10:14:36;593.38;;;564.72;;
60973;SDS011;46846;51.528;5.076;2023-08-21T10:17:02;579.83;;;551.40;;
60973;SDS011;46846;51.528;5.076;2023-08-21T10:19:31;586.13;;;557.92;;
60973;SDS011;46846;51.528;5.076;2023-08-21T10:21:57;574.97;;;546.85;;
60973;SDS011;46846;51.528;5.076;2023-08-21T10:24:27;592.78;;;564.17;;
60973;SDS011;46846;51.528;5.076;2023-08-21T10:26:58;575.40;;;547.63;;
60973;SDS011;46846;51.528;5.076;2023-08-21T10:29:24;588.05;;;559.45;;
60973;SDS011;46846;51.528;5.076;2023-08-21T10:32:00;577.95;;;549.70;;
60973;SDS011;46846;51.528;5.076;2023-08-21T10:34:33;580.03;;;551.75;;
60973;SDS011;46846;51.528;5.076;2023-08-21T10:37:07;586.90;;;558.50;;
60973;SDS011;46846;51.528;5.076;2023-08-21T10:39:35;591.63;;;563.20;;
60973;SDS011;46846;51.528;5.076;2023-08-21T10:42:09;581.50;;;553.38;;
60973;SDS011;46846;51.528;5.076;2023-08-21T10:49:46;588.10;;;559.67;;
60973;SDS011;46846;51.528;5.076;2023-08-21T10:52:13;587.90;;;559.45;;
60973;SDS011;46846;51.528;5.076;2023-08-21T10:54:43;603.22;;;573.90;;
60973;SDS011;46846;51.528;5.076;2023-08-21T10:57:12;586.63;;;558.40;;
60973;SDS011;46846;51.528;5.076;2023-08-21T10:59:37;599.55;;;570.47;;
60973;SDS011;46846;51.528;5.076;2023-08-21T11:02:03;600.83;;;571.83;;
60973;SDS011;46846;51.528;5.076;2023-08-21T11:04:28;599.40;;;570.58;;
60973;SDS011;46846;51.528;5.076;2023-08-21T11:06:54;608.50;;;579.15;;
60973;SDS011;46846;51.528;5.076;2023-08-21T11:09:21;595.00;;;566.30;;
60973;SDS011;46846;51.528;5.076;2023-08-21T11:11:46;595.38;;;566.20;;
60973;SDS011;46846;51.528;5.076;2023-08-21T11:14:12;607.65;;;578.15;;
60973;SDS011;46846;51.528;5.076;2023-08-21T11:16:38;601.17;;;572.10;;
60973;SDS011;46846;51.528;5.076;2023-08-21T11:19:04;600.95;;;572.03;;
60973;SDS011;46846;51.528;5.076;2023-08-21T11:21:32;600.45;;;571.25;;
60973;SDS011;46846;51.528;5.076;2023-08-21T11:23:58;610.15;;;580.67;;
60973;SDS011;46846;51.528;5.076;2023-08-21T11:26:24;599.58;;;570.78;;
60973;SDS011;46846;51.528;5.076;2023-08-21T11:28:50;615.38;;;585.78;;
60973;SDS011;46846;51.528;5.076;2023-08-21T11:31:16;612.58;;;582.97;;
60973;SDS011;46846;51.528;5.076;2023-08-21T11:33:41;602.92;;;573.92;;
60973;SDS011;46846;51.528;5.076;2023-08-21T11:36:14;590.10;;;561.70;;
60973;SDS011;46846;51.528;5.076;2023-08-21T11:38:40;617.25;;;587.45;;
60973;SDS011;46846;51.528;5.076;2023-08-21T11:41:05;590.20;;;561.60;;
60973;SDS011;46846;51.528;5.076;2023-08-21T11:43:40;606.58;;;577.13;;
60973;SDS011;46846;51.528;5.076;2023-08-21T11:46:08;602.70;;;573.58;;
60973;SDS011;46846;51.528;5.076;2023-08-21T11:48:37;616.10;;;585.65;;
60973;SDS011;46846;51.528;5.076;2023-08-21T11:51:03;608.22;;;578.72;;
60973;SDS011;46846;51.528;5.076;2023-08-21T11:53:38;614.10;;;584.42;;
60973;SDS011;46846;51.528;5.076;2023-08-21T11:56:12;601.65;;;572.45;;
60973;SDS011;46846;51.528;5.076;2023-08-21T11:58:39;619.47;;;589.28;;
60973;SDS011;46846;51.528;5.076;2023-08-21T12:01:06;616.60;;;586.72;;
60973;SDS011;46846;51.528;5.076;2023-08-21T12:03:36;607.88;;;578.22;;
60973;SDS011;46846;51.528;5.076;2023-08-21T12:06:10;611.58;;;581.85;;
60973;SDS011;46846;51.528;5.076;2023-08-21T12:08:37;614.85;;;584.90;;
60973;SDS011;46846;51.528;5.076;2023-08-21T12:11:03;600.03;;;571.08;;
60973;SDS011;46846;51.528;5.076;2023-08-21T12:13:29;604.53;;;575.15;;
60973;SDS011;46846;51.528;5.076;2023-08-21T12:15:55;620.40;;;590.28;;
60973;SDS011;46846;51.528;5.076;2023-08-21T12:18:21;610.13;;;580.53;;
60973;SDS011;46846;51.528;5.076;2023-08-21T12:20:46;615.60;;;585.67;;
60973;SDS011;46846;51.528;5.076;2023-08-21T12:23:12;619.80;;;589.78;;
60973;SDS011;46846;51.528;5.076;2023-08-21T12:25:37;605.28;;;575.67;;
60973;SDS011;46846;51.528;5.076;2023-08-21T12:28:03;613.38;;;583.67;;
60973;SDS011;46846;51.528;5.076;2023-08-21T12:30:28;615.40;;;585.50;;
60973;SDS011;46846;51.528;5.076;2023-08-21T12:32:54;620.17;;;589.72;;
60973;SDS011;46846;51.528;5.076;2023-08-21T12:35:19;611.35;;;581.85;;
60973;SDS011;46846;51.528;5.076;2023-08-21T12:37:44;607.95;;;578.58;;
60973;SDS011;46846;51.528;5.076;2023-08-21T12:40:10;612.95;;;583.25;;
60973;SDS011;46846;51.528;5.076;2023-08-21T12:42:35;607.63;;;578.28;;
60973;SDS011;46846;51.528;5.076;2023-08-21T12:45:01;612.13;;;582.33;;
60973;SDS011;46846;51.528;5.076;2023-08-21T12:47:26;617.92;;;587.97;;
60973;SDS011;46846;51.528;5.076;2023-08-21T12:49:52;621.75;;;591.65;;
60973;SDS011;46846;51.528;5.076;2023-08-21T12:52:17;616.47;;;586.35;;
60973;SDS011;46846;51.528;5.076;2023-08-21T12:54:42;615.55;;;585.67;;
60973;SDS011;46846;51.528;5.076;2023-08-21T12:57:08;621.47;;;591.35;;
60973;SDS011;46846;51.528;5.076;2023-08-21T12:59:36;627.90;;;597.00;;
60973;SDS011;46846;51.528;5.076;2023-08-21T13:02:01;627.70;;;597.13;;
60973;SDS011;46846;51.528;5.076;2023-08-21T13:04:27;633.85;;;603.13;;
60973;SDS011;46846;51.528;5.076;2023-08-21T13:06:53;622.22;;;592.13;;
60973;SDS011;46846;51.528;5.076;2023-08-21T13:09:18;627.53;;;597.08;;
60973;SDS011;46846;51.528;5.076;2023-08-21T13:11:43;635.80;;;604.55;;
60973;SDS011;46846;51.528;5.076;2023-08-21T13:14:09;623.40;;;593.10;;
60973;SDS011;46846;51.528;5.076;2023-08-21T13:16:34;637.50;;;606.53;;
60973;SDS011;46846;51.528;5.076;2023-08-21T13:18:59;627.72;;;597.25;;
60973;SDS011;46846;51.528;5.076;2023-08-21T13:21:25;622.15;;;591.88;;
60973;SDS011;46846;51.528;5.076;2023-08-21T13:23:50;629.88;;;599.25;;
60973;SDS011;46846;51.528;5.076;2023-08-21T13:26:16;629.90;;;599.22;;
60973;SDS011;46846;51.528;5.076;2023-08-21T13:28:41;644.63;;;613.17;;
60973;SDS011;46846;51.528;5.076;2023-08-21T13:31:06;624.53;;;594.15;;
60973;SDS011;46846;51.528;5.076;2023-08-21T13:33:43;629.60;;;598.88;;
60973;SDS011;46846;51.528;5.076;2023-08-21T13:36:09;636.38;;;605.30;;
60973;SDS011;46846;51.528;5.076;2023-08-21T13:38:35;632.92;;;602.10;;
60973;SDS011;46846;51.528;5.076;2023-08-21T13:41:00;640.70;;;609.35;;
60973;SDS011;46846;51.528;5.076;2023-08-21T13:43:25;634.45;;;603.47;;
60973;SDS011;46846;51.528;5.076;2023-08-21T13:45:51;642.85;;;611.45;;
60973;SDS011;46846;51.528;5.076;2023-08-21T13:48:16;639.17;;;607.83;;
60973;SDS011;46846;51.528;5.076;2023-08-21T13:50:41;637.38;;;606.10;;
60973;SDS011;46846;51.528;5.076;2023-08-21T13:53:07;644.58;;;612.88;;
60973;SDS011;46846;51.528;5.076;2023-08-21T13:55:32;642.75;;;611.30;;
60973;SDS011;46846;51.528;5.076;2023-08-21T13:57:58;636.65;;;605.28;;
60973;SDS011;46846;51.528;5.076;2023-08-21T14:00:23;642.72;;;610.45;;
60973;SDS011;46846;51.528;5.076;2023-08-21T14:02:49;642.22;;;610.67;;